sensor_id;sensor_type;location;lat;lon;timestamp;P1;durP1;ratioP1;P2;durP2;ratioP2
14688;SDS011;7432;48.728;9.154;2023-09-08T00:01:54;12.10;;;11.10;;
14688;SDS011;7432;48.728;9.154;2023-09-08T00:04:20;12.03;;;10.87;;
14688;SDS011;7432;48.728;9.154;2023-09-08T00:06:47;12.17;;;11.00;;
14688;SDS011;7432;48.728;9.154;2023-09-08T00:09:15;12.30;;;11.20;;
14688;SDS011;7432;48.728;9.154;2023-09-08T00:11:41;12.10;;;11.10;;
14688;SDS011;7432;48.728;9.154;2023-09-08T00:14:08;11.97;;;11.07;;
14688;SDS011;7432;48.728;9.154;2023-09-08T00:16:34;11.83;;;10.87;;
14688;SDS011;7432;48.728;9.154;2023-09-08T00:19:00;12.10;;;11.00;;
14688;SDS011;7432;48.728;9.154;2023-09-08T00:21:27;12.70;;;11.60;;
14688;SDS011;7432;48.728;9.154;2023-09-08T00:23:53;11.90;;;10.80;;
14688;SDS011;7432;48.728;9.154;2023-09-08T00:26:22;12.40;;;11.20;;
14688;SDS011;7432;48.728;9.154;2023-09-08T00:28:48;12.17;;;10.97;;
14688;SDS011;7432;48.728;9.154;2023-09-08T00:31:14;11.97;;;11.07;;
14688;SDS011;7432;48.728;9.154;2023-09-08T00:33:41;11.63;;;10.73;;
14688;SDS011;7432;48.728;9.154;2023-09-08T00:36:09;11.83;;;10.83;;
14688;SDS011;7432;48.728;9.154;2023-09-08T00:38:35;12.60;;;11.43;;
14688;SDS011;7432;48.728;9.154;2023-09-08T00:41:01;12.03;;;10.83;;
14688;SDS011;7432;48.728;9.154;2023-09-08T00:43:29;11.87;;;10.87;;
14688;SDS011;7432;48.728;9.154;2023-09-08T00:45:56;11.77;;;10.77;;
14688;SDS011;7432;48.728;9.154;2023-09-08T00:48:23;12.23;;;11.23;;
14688;SDS011;7432;48.728;9.154;2023-09-08T00:50:50;11.83;;;10.83;;
14688;SDS011;7432;48.728;9.154;2023-09-08T00:53:17;12.53;;;11.53;;
14688;SDS011;7432;48.728;9.154;2023-09-08T00:55:43;13.00;;;11.80;;
14688;SDS011;7432;48.728;9.154;2023-09-08T00:58:11;13.00;;;11.80;;
14688;SDS011;7432;48.728;9.154;2023-09-08T01:00:39;12.30;;;11.30;;
14688;SDS011;7432;48.728;9.154;2023-09-08T01:03:05;11.77;;;10.87;;
14688;SDS011;7432;48.728;9.154;2023-09-08T01:05:32;12.03;;;11.13;;
14688;SDS011;7432;48.728;9.154;2023-09-08T01:07:59;14.43;;;12.13;;
14688;SDS011;7432;48.728;9.154;2023-09-08T01:10:26;12.13;;;11.03;;
14688;SDS011;7432;48.728;9.154;2023-09-08T01:12:53;12.17;;;11.07;;
14688;SDS011;7432;48.728;9.154;2023-09-08T01:15:19;12.47;;;11.47;;
14688;SDS011;7432;48.728;9.154;2023-09-08T01:17:47;11.90;;;10.90;;
14688;SDS011;7432;48.728;9.154;2023-09-08T01:20:16;11.90;;;10.67;;
14688;SDS011;7432;48.728;9.154;2023-09-08T01:22:52;12.20;;;11.17;;
14688;SDS011;7432;48.728;9.154;2023-09-08T01:25:29;12.37;;;11.33;;
14688;SDS011;7432;48.728;9.154;2023-09-08T01:27:57;12.10;;;10.93;;
14688;SDS011;7432;48.728;9.154;2023-09-08T01:30:26;12.30;;;11.40;;
14688;SDS011;7432;48.728;9.154;2023-09-08T01:32:57;13.07;;;11.87;;
14688;SDS011;7432;48.728;9.154;2023-09-08T01:35:24;12.93;;;11.87;;
14688;SDS011;7432;48.728;9.154;2023-09-08T01:37:51;12.53;;;11.53;;
14688;SDS011;7432;48.728;9.154;2023-09-08T01:40:17;13.00;;;12.00;;
14688;SDS011;7432;48.728;9.154;2023-09-08T01:42:45;12.43;;;11.43;;
14688;SDS011;7432;48.728;9.154;2023-09-08T01:45:12;12.17;;;11.17;;
14688;SDS011;7432;48.728;9.154;2023-09-08T01:47:38;12.27;;;11.27;;
14688;SDS011;7432;48.728;9.154;2023-09-08T01:50:05;13.07;;;11.90;;
14688;SDS011;7432;48.728;9.154;2023-09-08T01:52:32;12.73;;;11.73;;
14688;SDS011;7432;48.728;9.154;2023-09-08T01:54:58;12.43;;;11.47;;
14688;SDS011;7432;48.728;9.154;2023-09-08T01:57:24;11.67;;;10.77;;
14688;SDS011;7432;48.728;9.154;2023-09-08T01:59:52;12.27;;;11.27;;
14688;SDS011;7432;48.728;9.154;2023-09-08T02:02:18;12.00;;;11.10;;
14688;SDS011;7432;48.728;9.154;2023-09-08T02:04:45;11.80;;;10.80;;
14688;SDS011;7432;48.728;9.154;2023-09-08T02:07:11;11.47;;;10.50;;
14688;SDS011;7432;48.728;9.154;2023-09-08T02:09:38;11.40;;;10.60;;
14688;SDS011;7432;48.728;9.154;2023-09-08T02:12:04;10.80;;;9.90;;
14688;SDS011;7432;48.728;9.154;2023-09-08T02:14:31;12.00;;;11.00;;
14688;SDS011;7432;48.728;9.154;2023-09-08T02:16:59;11.40;;;10.50;;
14688;SDS011;7432;48.728;9.154;2023-09-08T02:19:25;12.43;;;11.43;;
14688;SDS011;7432;48.728;9.154;2023-09-08T02:21:51;11.97;;;10.77;;
14688;SDS011;7432;48.728;9.154;2023-09-08T02:24:18;11.70;;;10.70;;
14688;SDS011;7432;48.728;9.154;2023-09-08T02:26:44;10.90;;;10.10;;
14688;SDS011;7432;48.728;9.154;2023-09-08T02:29:11;12.17;;;11.27;;
14688;SDS011;7432;48.728;9.154;2023-09-08T02:31:37;12.03;;;11.03;;
14688;SDS011;7432;48.728;9.154;2023-09-08T02:34:05;11.80;;;10.90;;
14688;SDS011;7432;48.728;9.154;2023-09-08T02:36:31;12.20;;;11.30;;
14688;SDS011;7432;48.728;9.154;2023-09-08T02:38:57;12.10;;;11.20;;
14688;SDS011;7432;48.728;9.154;2023-09-08T02:41:24;11.73;;;10.73;;
14688;SDS011;7432;48.728;9.154;2023-09-08T02:43:50;12.07;;;11.07;;
14688;SDS011;7432;48.728;9.154;2023-09-08T02:46:17;11.60;;;10.80;;
14688;SDS011;7432;48.728;9.154;2023-09-08T02:48:43;12.20;;;11.33;;
14688;SDS011;7432;48.728;9.154;2023-09-08T02:51:11;12.23;;;11.00;;
14688;SDS011;7432;48.728;9.154;2023-09-08T02:53:37;11.93;;;10.90;;
14688;SDS011;7432;48.728;9.154;2023-09-08T02:56:04;11.90;;;10.90;;
14688;SDS011;7432;48.728;9.154;2023-09-08T02:58:30;12.17;;;11.03;;
14688;SDS011;7432;48.728;9.154;2023-09-08T03:01:03;12.03;;;10.93;;
14688;SDS011;7432;48.728;9.154;2023-09-08T03:03:35;10.80;;;10.00;;
14688;SDS011;7432;48.728;9.154;2023-09-08T03:06:02;12.07;;;10.97;;
14688;SDS011;7432;48.728;9.154;2023-09-08T03:08:30;11.97;;;11.07;;
14688;SDS011;7432;48.728;9.154;2023-09-08T03:10:57;11.30;;;10.50;;
14688;SDS011;7432;48.728;9.154;2023-09-08T03:13:23;11.83;;;10.93;;
14688;SDS011;7432;48.728;9.154;2023-09-08T03:15:51;11.97;;;11.07;;
14688;SDS011;7432;48.728;9.154;2023-09-08T03:18:17;12.23;;;11.33;;
14688;SDS011;7432;48.728;9.154;2023-09-08T03:20:47;14.97;;;11.77;;
14688;SDS011;7432;48.728;9.154;2023-09-08T03:23:14;12.77;;;11.77;;
14688;SDS011;7432;48.728;9.154;2023-09-08T03:25:41;12.80;;;11.80;;
14688;SDS011;7432;48.728;9.154;2023-09-08T03:28:08;13.33;;;12.13;;
14688;SDS011;7432;48.728;9.154;2023-09-08T03:30:34;12.43;;;11.50;;
14688;SDS011;7432;48.728;9.154;2023-09-08T03:33:01;12.50;;;11.50;;
14688;SDS011;7432;48.728;9.154;2023-09-08T03:35:27;13.10;;;11.90;;
14688;SDS011;7432;48.728;9.154;2023-09-08T03:37:53;12.27;;;11.17;;
14688;SDS011;7432;48.728;9.154;2023-09-08T03:40:20;12.70;;;11.60;;
14688;SDS011;7432;48.728;9.154;2023-09-08T03:42:47;12.57;;;11.57;;
14688;SDS011;7432;48.728;9.154;2023-09-08T03:45:14;11.90;;;11.00;;
14688;SDS011;7432;48.728;9.154;2023-09-08T03:47:40;12.60;;;11.60;;
14688;SDS011;7432;48.728;9.154;2023-09-08T03:50:07;12.40;;;11.20;;
14688;SDS011;7432;48.728;9.154;2023-09-08T03:52:34;11.17;;;10.30;;
14688;SDS011;7432;48.728;9.154;2023-09-08T03:55:01;11.93;;;10.93;;
14688;SDS011;7432;48.728;9.154;2023-09-08T03:57:27;13.17;;;12.07;;
14688;SDS011;7432;48.728;9.154;2023-09-08T03:59:55;12.80;;;11.87;;
14688;SDS011;7432;48.728;9.154;2023-09-08T04:02:21;13.47;;;12.30;;
14688;SDS011;7432;48.728;9.154;2023-09-08T04:04:47;13.90;;;12.53;;
14688;SDS011;7432;48.728;9.154;2023-09-08T04:07:14;13.37;;;12.20;;
14688;SDS011;7432;48.728;9.154;2023-09-08T04:09:40;13.73;;;12.53;;
14688;SDS011;7432;48.728;9.154;2023-09-08T04:12:07;11.87;;;10.97;;
14688;SDS011;7432;48.728;9.154;2023-09-08T04:14:36;12.40;;;11.50;;
14688;SDS011;7432;48.728;9.154;2023-09-08T04:17:03;12.53;;;11.50;;
14688;SDS011;7432;48.728;9.154;2023-09-08T04:19:30;12.73;;;11.63;;
14688;SDS011;7432;48.728;9.154;2023-09-08T04:21:56;13.00;;;11.80;;
14688;SDS011;7432;48.728;9.154;2023-09-08T04:24:22;12.70;;;11.80;;
14688;SDS011;7432;48.728;9.154;2023-09-08T04:26:49;12.00;;;11.10;;
14688;SDS011;7432;48.728;9.154;2023-09-08T04:29:15;12.93;;;11.93;;
14688;SDS011;7432;48.728;9.154;2023-09-08T04:31:41;13.40;;;12.30;;
14688;SDS011;7432;48.728;9.154;2023-09-08T04:34:09;12.20;;;11.10;;
14688;SDS011;7432;48.728;9.154;2023-09-08T04:36:36;12.57;;;11.50;;
14688;SDS011;7432;48.728;9.154;2023-09-08T04:39:03;12.37;;;11.37;;
14688;SDS011;7432;48.728;9.154;2023-09-08T04:41:29;12.40;;;11.40;;
14688;SDS011;7432;48.728;9.154;2023-09-08T04:43:56;13.23;;;12.13;;
14688;SDS011;7432;48.728;9.154;2023-09-08T04:46:23;11.20;;;10.30;;
14688;SDS011;7432;48.728;9.154;2023-09-08T04:48:49;12.67;;;11.43;;
14688;SDS011;7432;48.728;9.154;2023-09-08T04:51:17;12.80;;;11.70;;
14688;SDS011;7432;48.728;9.154;2023-09-08T04:53:43;12.80;;;11.47;;
14688;SDS011;7432;48.728;9.154;2023-09-08T04:56:09;12.60;;;11.50;;
14688;SDS011;7432;48.728;9.154;2023-09-08T04:58:36;13.27;;;11.87;;
14688;SDS011;7432;48.728;9.154;2023-09-08T05:01:02;12.17;;;11.23;;
14688;SDS011;7432;48.728;9.154;2023-09-08T05:03:28;12.40;;;11.30;;
14688;SDS011;7432;48.728;9.154;2023-09-08T05:05:55;10.93;;;10.03;;
14688;SDS011;7432;48.728;9.154;2023-09-08T05:08:23;12.80;;;11.60;;
14688;SDS011;7432;48.728;9.154;2023-09-08T05:10:49;11.43;;;10.47;;
14688;SDS011;7432;48.728;9.154;2023-09-08T05:13:16;13.87;;;11.17;;
14688;SDS011;7432;48.728;9.154;2023-09-08T05:15:43;12.33;;;11.23;;
14688;SDS011;7432;48.728;9.154;2023-09-08T05:18:13;12.27;;;11.30;;
14688;SDS011;7432;48.728;9.154;2023-09-08T05:20:39;11.90;;;10.77;;
14688;SDS011;7432;48.728;9.154;2023-09-08T05:23:06;12.20;;;11.20;;
14688;SDS011;7432;48.728;9.154;2023-09-08T05:25:33;11.27;;;10.37;;
14688;SDS011;7432;48.728;9.154;2023-09-08T05:28:00;12.07;;;11.03;;
14688;SDS011;7432;48.728;9.154;2023-09-08T05:30:27;11.27;;;10.20;;
14688;SDS011;7432;48.728;9.154;2023-09-08T05:32:53;11.67;;;10.60;;
14688;SDS011;7432;48.728;9.154;2023-09-08T05:35:20;12.20;;;11.10;;
14688;SDS011;7432;48.728;9.154;2023-09-08T05:37:46;11.80;;;10.70;;
14688;SDS011;7432;48.728;9.154;2023-09-08T05:40:12;10.87;;;9.97;;
14688;SDS011;7432;48.728;9.154;2023-09-08T05:42:39;13.77;;;12.47;;
14688;SDS011;7432;48.728;9.154;2023-09-08T05:45:06;12.30;;;11.30;;
14688;SDS011;7432;48.728;9.154;2023-09-08T05:47:32;11.87;;;10.80;;
14688;SDS011;7432;48.728;9.154;2023-09-08T05:50:00;12.90;;;11.70;;
14688;SDS011;7432;48.728;9.154;2023-09-08T05:52:27;22.67;;;12.23;;
14688;SDS011;7432;48.728;9.154;2023-09-08T05:54:53;16.60;;;13.23;;
14688;SDS011;7432;48.728;9.154;2023-09-08T05:57:20;14.87;;;11.70;;
14688;SDS011;7432;48.728;9.154;2023-09-08T05:59:48;13.40;;;11.97;;
14688;SDS011;7432;48.728;9.154;2023-09-08T06:02:14;12.40;;;11.47;;
14688;SDS011;7432;48.728;9.154;2023-09-08T06:04:40;14.03;;;12.57;;
14688;SDS011;7432;48.728;9.154;2023-09-08T06:07:07;13.60;;;12.37;;
14688;SDS011;7432;48.728;9.154;2023-09-08T06:09:33;12.63;;;11.43;;
14688;SDS011;7432;48.728;9.154;2023-09-08T06:11:59;14.53;;;13.30;;
14688;SDS011;7432;48.728;9.154;2023-09-08T06:14:26;13.60;;;12.40;;
14688;SDS011;7432;48.728;9.154;2023-09-08T06:16:53;13.80;;;12.47;;
14688;SDS011;7432;48.728;9.154;2023-09-08T06:19:20;12.93;;;11.83;;
14688;SDS011;7432;48.728;9.154;2023-09-08T06:21:46;14.03;;;12.90;;
14688;SDS011;7432;48.728;9.154;2023-09-08T06:24:12;15.20;;;13.70;;
14688;SDS011;7432;48.728;9.154;2023-09-08T06:26:39;14.27;;;13.07;;
14688;SDS011;7432;48.728;9.154;2023-09-08T06:29:07;13.77;;;12.60;;
14688;SDS011;7432;48.728;9.154;2023-09-08T06:31:33;13.87;;;12.47;;
14688;SDS011;7432;48.728;9.154;2023-09-08T06:34:01;12.90;;;11.80;;
14688;SDS011;7432;48.728;9.154;2023-09-08T06:36:27;14.32;;;13.20;;
14688;SDS011;7432;48.728;9.154;2023-09-08T06:38:53;14.60;;;13.50;;
14688;SDS011;7432;48.728;9.154;2023-09-08T06:41:20;14.38;;;13.38;;
14688;SDS011;7432;48.728;9.154;2023-09-08T06:43:48;14.07;;;13.07;;
14688;SDS011;7432;48.728;9.154;2023-09-08T06:46:14;15.40;;;14.30;;
14688;SDS011;7432;48.728;9.154;2023-09-08T06:48:42;15.38;;;14.38;;
14688;SDS011;7432;48.728;9.154;2023-09-08T06:51:09;16.05;;;14.77;;
14688;SDS011;7432;48.728;9.154;2023-09-08T06:53:36;16.17;;;14.77;;
14688;SDS011;7432;48.728;9.154;2023-09-08T06:56:02;14.65;;;13.70;;
14688;SDS011;7432;48.728;9.154;2023-09-08T06:58:29;16.23;;;15.02;;
14688;SDS011;7432;48.728;9.154;2023-09-08T07:00:55;15.77;;;14.57;;
14688;SDS011;7432;48.728;9.154;2023-09-08T07:03:22;15.88;;;14.55;;
14688;SDS011;7432;48.728;9.154;2023-09-08T07:05:49;14.35;;;13.15;;
14688;SDS011;7432;48.728;9.154;2023-09-08T07:08:17;15.23;;;14.13;;
14688;SDS011;7432;48.728;9.154;2023-09-08T07:10:43;15.18;;;13.88;;
14688;SDS011;7432;48.728;9.154;2023-09-08T07:13:10;14.05;;;13.00;;
14688;SDS011;7432;48.728;9.154;2023-09-08T07:15:36;14.77;;;13.45;;
14688;SDS011;7432;48.728;9.154;2023-09-08T07:18:03;14.82;;;13.50;;
14688;SDS011;7432;48.728;9.154;2023-09-08T07:20:30;13.93;;;12.85;;
14688;SDS011;7432;48.728;9.154;2023-09-08T07:22:56;14.55;;;13.55;;
14688;SDS011;7432;48.728;9.154;2023-09-08T07:25:24;15.40;;;14.05;;
14688;SDS011;7432;48.728;9.154;2023-09-08T07:27:50;14.65;;;13.55;;
14688;SDS011;7432;48.728;9.154;2023-09-08T07:30:18;14.82;;;13.68;;
14688;SDS011;7432;48.728;9.154;2023-09-08T07:32:45;14.45;;;13.25;;
14688;SDS011;7432;48.728;9.154;2023-09-08T07:35:11;16.42;;;15.13;;
14688;SDS011;7432;48.728;9.154;2023-09-08T07:37:39;15.23;;;14.02;;
14688;SDS011;7432;48.728;9.154;2023-09-08T07:40:06;15.10;;;13.88;;
14688;SDS011;7432;48.728;9.154;2023-09-08T07:42:35;16.15;;;14.73;;
14688;SDS011;7432;48.728;9.154;2023-09-08T07:45:02;15.65;;;13.60;;
14688;SDS011;7432;48.728;9.154;2023-09-08T07:47:29;19.90;;;15.00;;
14688;SDS011;7432;48.728;9.154;2023-09-08T07:50:15;15.20;;;13.45;;
14688;SDS011;7432;48.728;9.154;2023-09-08T07:52:43;15.55;;;14.07;;
14688;SDS011;7432;48.728;9.154;2023-09-08T07:55:09;16.15;;;14.75;;
14688;SDS011;7432;48.728;9.154;2023-09-08T07:57:37;16.20;;;14.90;;
14688;SDS011;7432;48.728;9.154;2023-09-08T08:00:04;15.20;;;14.10;;
14688;SDS011;7432;48.728;9.154;2023-09-08T08:02:31;17.08;;;15.25;;
14688;SDS011;7432;48.728;9.154;2023-09-08T08:04:57;16.73;;;15.30;;
14688;SDS011;7432;48.728;9.154;2023-09-08T08:07:24;16.52;;;15.25;;
14688;SDS011;7432;48.728;9.154;2023-09-08T08:09:50;16.92;;;15.63;;
14688;SDS011;7432;48.728;9.154;2023-09-08T08:12:18;15.77;;;14.57;;
14688;SDS011;7432;48.728;9.154;2023-09-08T08:14:46;15.48;;;14.38;;
14688;SDS011;7432;48.728;9.154;2023-09-08T08:17:13;15.85;;;14.75;;
14688;SDS011;7432;48.728;9.154;2023-09-08T08:19:42;15.27;;;14.18;;
14688;SDS011;7432;48.728;9.154;2023-09-08T08:22:08;16.08;;;14.73;;
14688;SDS011;7432;48.728;9.154;2023-09-08T08:24:35;15.60;;;14.60;;
14688;SDS011;7432;48.728;9.154;2023-09-08T08:27:01;15.45;;;14.35;;
14688;SDS011;7432;48.728;9.154;2023-09-08T08:29:28;14.75;;;13.75;;
14688;SDS011;7432;48.728;9.154;2023-09-08T08:31:55;14.85;;;13.75;;
14688;SDS011;7432;48.728;9.154;2023-09-08T08:34:22;15.63;;;14.55;;
14688;SDS011;7432;48.728;9.154;2023-09-08T08:36:48;15.07;;;13.73;;
14688;SDS011;7432;48.728;9.154;2023-09-08T08:39:15;14.23;;;13.30;;
14688;SDS011;7432;48.728;9.154;2023-09-08T08:41:41;14.15;;;13.15;;
14688;SDS011;7432;48.728;9.154;2023-09-08T08:44:08;13.88;;;12.88;;
14688;SDS011;7432;48.728;9.154;2023-09-08T08:46:34;14.82;;;13.52;;
14688;SDS011;7432;48.728;9.154;2023-09-08T08:49:03;14.77;;;13.60;;
14688;SDS011;7432;48.728;9.154;2023-09-08T08:51:30;14.88;;;13.70;;
14688;SDS011;7432;48.728;9.154;2023-09-08T08:53:58;14.50;;;13.50;;
14688;SDS011;7432;48.728;9.154;2023-09-08T08:56:25;14.27;;;13.27;;
14688;SDS011;7432;48.728;9.154;2023-09-08T08:58:52;15.02;;;13.93;;
14688;SDS011;7432;48.728;9.154;2023-09-08T09:01:19;15.02;;;13.82;;
14688;SDS011;7432;48.728;9.154;2023-09-08T09:03:46;15.30;;;14.20;;
14688;SDS011;7432;48.728;9.154;2023-09-08T09:06:16;15.82;;;14.63;;
14688;SDS011;7432;48.728;9.154;2023-09-08T09:08:44;16.13;;;14.70;;
14688;SDS011;7432;48.728;9.154;2023-09-08T09:11:11;15.70;;;14.57;;
14688;SDS011;7432;48.728;9.154;2023-09-08T09:13:38;15.27;;;14.07;;
14688;SDS011;7432;48.728;9.154;2023-09-08T09:16:04;15.18;;;14.00;;
14688;SDS011;7432;48.728;9.154;2023-09-08T09:18:35;15.02;;;13.82;;
14688;SDS011;7432;48.728;9.154;2023-09-08T09:21:21;15.40;;;14.35;;
14688;SDS011;7432;48.728;9.154;2023-09-08T09:23:48;15.10;;;14.20;;
14688;SDS011;7432;48.728;9.154;2023-09-08T09:26:22;16.60;;;15.27;;
14688;SDS011;7432;48.728;9.154;2023-09-08T09:28:50;15.30;;;14.35;;
14688;SDS011;7432;48.728;9.154;2023-09-08T09:31:18;15.95;;;14.65;;
14688;SDS011;7432;48.728;9.154;2023-09-08T09:33:48;14.38;;;13.48;;
14688;SDS011;7432;48.728;9.154;2023-09-08T09:36:27;15.48;;;14.27;;
14688;SDS011;7432;48.728;9.154;2023-09-08T09:38:55;14.70;;;13.57;;
14688;SDS011;7432;48.728;9.154;2023-09-08T09:41:24;14.68;;;13.65;;
14688;SDS011;7432;48.728;9.154;2023-09-08T09:43:50;15.07;;;14.07;;
14688;SDS011;7432;48.728;9.154;2023-09-08T09:46:17;14.70;;;13.77;;
14688;SDS011;7432;48.728;9.154;2023-09-08T09:48:45;14.63;;;13.73;;
14688;SDS011;7432;48.728;9.154;2023-09-08T09:51:15;15.27;;;14.13;;
14688;SDS011;7432;48.728;9.154;2023-09-08T09:53:44;15.45;;;14.25;;
14688;SDS011;7432;48.728;9.154;2023-09-08T09:56:13;16.00;;;14.90;;
14688;SDS011;7432;48.728;9.154;2023-09-08T09:58:40;16.75;;;15.75;;
14688;SDS011;7432;48.728;9.154;2023-09-08T10:01:08;16.70;;;15.70;;
14688;SDS011;7432;48.728;9.154;2023-09-08T10:03:37;17.08;;;15.88;;
14688;SDS011;7432;48.728;9.154;2023-09-08T10:06:05;17.38;;;16.15;;
14688;SDS011;7432;48.728;9.154;2023-09-08T10:08:32;17.08;;;15.98;;
14688;SDS011;7432;48.728;9.154;2023-09-08T10:11:04;17.65;;;16.23;;
14688;SDS011;7432;48.728;9.154;2023-09-08T10:13:36;17.17;;;16.13;;
14688;SDS011;7432;48.728;9.154;2023-09-08T10:16:06;17.58;;;16.38;;
14688;SDS011;7432;48.728;9.154;2023-09-08T10:18:34;18.52;;;17.33;;
14688;SDS011;7432;48.728;9.154;2023-09-08T10:21:03;17.88;;;16.58;;
14688;SDS011;7432;48.728;9.154;2023-09-08T10:23:31;17.25;;;16.15;;
14688;SDS011;7432;48.728;9.154;2023-09-08T10:26:02;16.60;;;15.50;;
14688;SDS011;7432;48.728;9.154;2023-09-08T10:28:32;17.80;;;16.60;;
14688;SDS011;7432;48.728;9.154;2023-09-08T10:30:58;17.38;;;16.23;;
14688;SDS011;7432;48.728;9.154;2023-09-08T10:33:25;17.95;;;16.75;;
14688;SDS011;7432;48.728;9.154;2023-09-08T10:35:53;17.38;;;16.08;;
14688;SDS011;7432;48.728;9.154;2023-09-08T10:38:23;17.48;;;16.20;;
14688;SDS011;7432;48.728;9.154;2023-09-08T10:40:51;17.15;;;16.15;;
14688;SDS011;7432;48.728;9.154;2023-09-08T10:43:19;18.50;;;17.02;;
14688;SDS011;7432;48.728;9.154;2023-09-08T10:45:46;17.52;;;16.42;;
14688;SDS011;7432;48.728;9.154;2023-09-08T10:48:13;16.25;;;15.13;;
14688;SDS011;7432;48.728;9.154;2023-09-08T10:50:41;17.80;;;16.52;;
14688;SDS011;7432;48.728;9.154;2023-09-08T10:53:10;17.05;;;16.02;;
14688;SDS011;7432;48.728;9.154;2023-09-08T10:55:40;17.52;;;16.42;;
14688;SDS011;7432;48.728;9.154;2023-09-08T10:58:09;17.25;;;16.15;;
14688;SDS011;7432;48.728;9.154;2023-09-08T11:00:44;19.10;;;17.40;;
14688;SDS011;7432;48.728;9.154;2023-09-08T11:03:11;18.50;;;17.27;;
14688;SDS011;7432;48.728;9.154;2023-09-08T11:05:38;17.85;;;16.55;;
14688;SDS011;7432;48.728;9.154;2023-09-08T11:08:05;17.75;;;16.55;;
14688;SDS011;7432;48.728;9.154;2023-09-08T11:10:31;18.02;;;16.88;;
14688;SDS011;7432;48.728;9.154;2023-09-08T11:12:59;18.17;;;16.80;;
14688;SDS011;7432;48.728;9.154;2023-09-08T11:15:27;17.00;;;15.73;;
14688;SDS011;7432;48.728;9.154;2023-09-08T11:17:55;17.50;;;16.30;;
14688;SDS011;7432;48.728;9.154;2023-09-08T11:20:26;17.60;;;16.38;;
14688;SDS011;7432;48.728;9.154;2023-09-08T11:22:54;18.15;;;16.80;;
14688;SDS011;7432;48.728;9.154;2023-09-08T11:25:20;17.40;;;16.25;;
14688;SDS011;7432;48.728;9.154;2023-09-08T11:27:47;18.35;;;16.92;;
14688;SDS011;7432;48.728;9.154;2023-09-08T11:30:15;17.60;;;16.45;;
14688;SDS011;7432;48.728;9.154;2023-09-08T11:32:42;17.65;;;16.45;;
14688;SDS011;7432;48.728;9.154;2023-09-08T11:35:10;17.30;;;16.08;;
14688;SDS011;7432;48.728;9.154;2023-09-08T11:37:37;17.30;;;16.10;;
14688;SDS011;7432;48.728;9.154;2023-09-08T11:40:05;18.15;;;16.83;;
14688;SDS011;7432;48.728;9.154;2023-09-08T11:42:37;17.10;;;15.75;;
14688;SDS011;7432;48.728;9.154;2023-09-08T11:45:08;17.98;;;16.60;;
14688;SDS011;7432;48.728;9.154;2023-09-08T11:47:37;17.65;;;16.35;;
14688;SDS011;7432;48.728;9.154;2023-09-08T11:50:06;16.67;;;15.57;;
14688;SDS011;7432;48.728;9.154;2023-09-08T11:52:35;17.52;;;16.25;;
14688;SDS011;7432;48.728;9.154;2023-09-08T11:55:01;17.70;;;16.30;;
14688;SDS011;7432;48.728;9.154;2023-09-08T11:57:28;17.52;;;16.27;;
14688;SDS011;7432;48.728;9.154;2023-09-08T11:59:55;17.60;;;16.30;;
14688;SDS011;7432;48.728;9.154;2023-09-08T12:02:22;17.83;;;16.58;;
14688;SDS011;7432;48.728;9.154;2023-09-08T12:04:48;17.00;;;15.90;;
14688;SDS011;7432;48.728;9.154;2023-09-08T12:07:15;17.13;;;15.85;;
14688;SDS011;7432;48.728;9.154;2023-09-08T12:09:45;17.40;;;16.27;;
14688;SDS011;7432;48.728;9.154;2023-09-08T12:12:12;18.02;;;16.52;;
14688;SDS011;7432;48.728;9.154;2023-09-08T12:14:41;18.38;;;16.98;;
14688;SDS011;7432;48.728;9.154;2023-09-08T12:17:08;17.30;;;16.00;;
14688;SDS011;7432;48.728;9.154;2023-09-08T12:19:35;17.95;;;16.35;;
14688;SDS011;7432;48.728;9.154;2023-09-08T12:22:03;18.33;;;16.88;;
14688;SDS011;7432;48.728;9.154;2023-09-08T12:24:49;17.73;;;16.35;;
14688;SDS011;7432;48.728;9.154;2023-09-08T12:27:22;17.80;;;16.60;;
14688;SDS011;7432;48.728;9.154;2023-09-08T12:29:53;17.20;;;16.00;;
14688;SDS011;7432;48.728;9.154;2023-09-08T12:32:23;16.98;;;15.55;;
14688;SDS011;7432;48.728;9.154;2023-09-08T12:34:50;18.40;;;17.10;;
14688;SDS011;7432;48.728;9.154;2023-09-08T12:37:19;18.25;;;16.95;;
14688;SDS011;7432;48.728;9.154;2023-09-08T12:39:46;17.63;;;16.48;;
14688;SDS011;7432;48.728;9.154;2023-09-08T12:42:14;18.52;;;17.00;;
14688;SDS011;7432;48.728;9.154;2023-09-08T12:44:40;18.40;;;16.90;;
14688;SDS011;7432;48.728;9.154;2023-09-08T12:47:08;19.13;;;17.40;;
14688;SDS011;7432;48.728;9.154;2023-09-08T12:49:37;18.42;;;16.92;;
14688;SDS011;7432;48.728;9.154;2023-09-08T12:52:03;18.65;;;17.25;;
14688;SDS011;7432;48.728;9.154;2023-09-08T12:54:30;18.88;;;17.58;;
14688;SDS011;7432;48.728;9.154;2023-09-08T12:56:57;18.02;;;16.90;;
14688;SDS011;7432;48.728;9.154;2023-09-08T12:59:24;19.33;;;17.80;;
14688;SDS011;7432;48.728;9.154;2023-09-08T13:01:51;18.52;;;17.23;;
14688;SDS011;7432;48.728;9.154;2023-09-08T13:04:17;18.73;;;17.30;;
14688;SDS011;7432;48.728;9.154;2023-09-08T13:06:44;18.80;;;17.35;;
14688;SDS011;7432;48.728;9.154;2023-09-08T13:09:10;19.00;;;17.50;;
14688;SDS011;7432;48.728;9.154;2023-09-08T13:11:37;17.42;;;16.17;;
14688;SDS011;7432;48.728;9.154;2023-09-08T13:14:03;18.48;;;17.02;;
14688;SDS011;7432;48.728;9.154;2023-09-08T13:16:31;17.55;;;16.35;;
14688;SDS011;7432;48.728;9.154;2023-09-08T13:18:58;19.38;;;17.95;;
14688;SDS011;7432;48.728;9.154;2023-09-08T13:21:25;18.10;;;16.92;;
14688;SDS011;7432;48.728;9.154;2023-09-08T13:23:51;18.30;;;17.10;;
14688;SDS011;7432;48.728;9.154;2023-09-08T13:26:18;18.30;;;17.10;;
14688;SDS011;7432;48.728;9.154;2023-09-08T13:28:44;18.55;;;17.05;;
14688;SDS011;7432;48.728;9.154;2023-09-08T13:31:10;19.10;;;17.60;;
14688;SDS011;7432;48.728;9.154;2023-09-08T13:33:38;19.08;;;17.77;;
14688;SDS011;7432;48.728;9.154;2023-09-08T13:36:05;18.10;;;16.90;;
14688;SDS011;7432;48.728;9.154;2023-09-08T13:38:31;18.75;;;17.17;;
14688;SDS011;7432;48.728;9.154;2023-09-08T13:40:58;18.50;;;17.10;;
14688;SDS011;7432;48.728;9.154;2023-09-08T13:43:24;17.80;;;16.50;;
14688;SDS011;7432;48.728;9.154;2023-09-08T13:45:50;18.35;;;17.15;;
14688;SDS011;7432;48.728;9.154;2023-09-08T13:48:17;17.27;;;16.17;;
14688;SDS011;7432;48.728;9.154;2023-09-08T13:50:44;18.83;;;17.52;;
14688;SDS011;7432;48.728;9.154;2023-09-08T13:53:11;18.23;;;17.10;;
14688;SDS011;7432;48.728;9.154;2023-09-08T13:55:37;17.20;;;16.00;;
14688;SDS011;7432;48.728;9.154;2023-09-08T13:58:04;18.15;;;16.63;;
14688;SDS011;7432;48.728;9.154;2023-09-08T14:00:30;18.45;;;17.17;;
14688;SDS011;7432;48.728;9.154;2023-09-08T14:02:56;17.33;;;16.00;;
14688;SDS011;7432;48.728;9.154;2023-09-08T14:05:23;17.33;;;16.02;;
14688;SDS011;7432;48.728;9.154;2023-09-08T14:07:50;17.23;;;16.13;;
14688;SDS011;7432;48.728;9.154;2023-09-08T14:10:17;20.55;;;17.70;;
14688;SDS011;7432;48.728;9.154;2023-09-08T14:12:43;16.13;;;15.02;;
14688;SDS011;7432;48.728;9.154;2023-09-08T14:15:09;17.42;;;16.27;;
14688;SDS011;7432;48.728;9.154;2023-09-08T14:17:40;16.83;;;15.70;;
14688;SDS011;7432;48.728;9.154;2023-09-08T14:20:07;17.00;;;15.90;;
14688;SDS011;7432;48.728;9.154;2023-09-08T14:22:34;17.55;;;16.15;;
14688;SDS011;7432;48.728;9.154;2023-09-08T14:25:02;17.48;;;16.38;;
14688;SDS011;7432;48.728;9.154;2023-09-08T14:27:29;17.27;;;16.02;;
14688;SDS011;7432;48.728;9.154;2023-09-08T14:29:55;18.25;;;16.98;;
14688;SDS011;7432;48.728;9.154;2023-09-08T14:32:22;17.65;;;16.30;;
14688;SDS011;7432;48.728;9.154;2023-09-08T14:34:48;16.70;;;15.60;;
14688;SDS011;7432;48.728;9.154;2023-09-08T14:37:15;16.83;;;15.38;;